sensor_id;sensor_type;location;lat;lon;timestamp;pressure;altitude;pressure_sealevel;temperature;humidity
33163;BME280;29282;45.656;11.302;2023-06-26T00:02:18;98412.97;;;25.09;57.48
33163;BME280;29282;45.656;11.302;2023-06-26T00:04:43;98411.81;;;25.11;57.27
33163;BME280;29282;45.656;11.302;2023-06-26T00:07:10;98420.47;;;25.09;57.51
33163;BME280;29282;45.656;11.302;2023-06-26T00:09:36;98420.47;;;25.09;57.88
33163;BME280;29282;45.656;11.302;2023-06-26T00:12:01;98422.91;;;25.11;57.61
33163;BME280;29282;45.656;11.302;2023-06-26T00:14:27;98426.81;;;25.09;57.70
33163;BME280;29282;45.656;11.302;2023-06-26T00:16:52;98425.66;;;25.11;57.59
33163;BME280;29282;45.656;11.302;2023-06-26T00:19:18;98418.50;;;25.09;57.59
33163;BME280;29282;45.656;11.302;2023-06-26T00:21:44;98417.34;;;25.11;57.80
33163;BME280;29282;45.656;11.302;2023-06-26T00:24:16;98421.28;;;25.09;57.58
33163;BME280;29282;45.656;11.302;2023-06-26T00:26:45;98415.72;;;25.09;57.75
33163;BME280;29282;45.656;11.302;2023-06-26T00:29:11;98420.47;;;25.09;57.77
33163;BME280;29282;45.656;11.302;2023-06-26T00:31:36;98416.56;;;25.10;57.84
33163;BME280;29282;45.656;11.302;2023-06-26T00:34:03;98417.72;;;25.09;57.70
33163;BME280;29282;45.656;11.302;2023-06-26T00:36:29;98426.03;;;25.09;57.86
33163;BME280;29282;45.656;11.302;2023-06-26T00:38:54;98416.91;;;25.08;58.01
33163;BME280;29282;45.656;11.302;2023-06-26T00:41:20;98421.28;;;25.09;57.91
33163;BME280;29282;45.656;11.302;2023-06-26T00:43:45;98417.72;;;25.09;57.83
33163;BME280;29282;45.656;11.302;2023-06-26T00:46:13;98419.31;;;25.10;57.96
33163;BME280;29282;45.656;11.302;2023-06-26T00:48:41;98422.47;;;25.08;57.92
33163;BME280;29282;45.656;11.302;2023-06-26T00:51:07;98426.03;;;25.09;58.03
33163;BME280;29282;45.656;11.302;2023-06-26T00:53:33;98420.47;;;25.09;57.89
33163;BME280;29282;45.656;11.302;2023-06-26T00:56:00;98420.47;;;25.09;57.66
33163;BME280;29282;45.656;11.302;2023-06-26T00:58:26;98422.47;;;25.08;58.05
33163;BME280;29282;45.656;11.302;2023-06-26T01:00:52;98423.66;;;25.07;57.99
33163;BME280;29282;45.656;11.302;2023-06-26T01:03:22;98433.56;;;25.08;57.97
33163;BME280;29282;45.656;11.302;2023-06-26T01:05:49;98420.88;;;25.07;58.15
33163;BME280;29282;45.656;11.302;2023-06-26T01:08:18;98415.72;;;25.09;57.88
33163;BME280;29282;45.656;11.302;2023-06-26T01:10:44;98419.31;;;25.10;57.88
33163;BME280;29282;45.656;11.302;2023-06-26T01:13:12;98421.28;;;25.09;57.78
33163;BME280;29282;45.656;11.302;2023-06-26T01:15:38;98423.25;;;25.09;57.58
33163;BME280;29282;45.656;11.302;2023-06-26T01:18:05;98421.66;;;25.08;57.95
33163;BME280;29282;45.656;11.302;2023-06-26T01:20:38;98419.69;;;25.08;57.61
33163;BME280;29282;45.656;11.302;2023-06-26T01:23:38;98418.91;;;25.08;57.92
33163;BME280;29282;45.656;11.302;2023-06-26T01:26:20;98420.47;;;25.09;57.80
33163;BME280;29282;45.656;11.302;2023-06-26T01:28:46;98415.31;;;25.07;58.02
33163;BME280;29282;45.656;11.302;2023-06-26T01:31:13;98414.94;;;25.09;57.88
33163;BME280;29282;45.656;11.302;2023-06-26T01:33:40;98407.81;;;25.08;57.68
33163;BME280;29282;45.656;11.302;2023-06-26T01:36:06;98407.81;;;25.08;57.93
33163;BME280;29282;45.656;11.302;2023-06-26T01:38:32;98418.09;;;25.07;57.75
33163;BME280;29282;45.656;11.302;2023-06-26T01:40:58;98413.34;;;25.08;57.99
33163;BME280;29282;45.656;11.302;2023-06-26T01:54:52;98410.94;;;25.06;57.93
33163;BME280;29282;45.656;11.302;2023-06-26T01:57:20;98418.91;;;25.08;57.83
33163;BME280;29282;45.656;11.302;2023-06-26T01:59:48;98419.25;;;25.06;57.89
33163;BME280;29282;45.656;11.302;2023-06-26T02:02:14;98410.94;;;25.06;58.03
33163;BME280;29282;45.656;11.302;2023-06-26T02:04:40;98417.31;;;25.07;57.91
33163;BME280;29282;45.656;11.302;2023-06-26T02:07:05;98418.47;;;25.06;57.93
33163;BME280;29282;45.656;11.302;2023-06-26T02:09:31;98416.47;;;25.06;58.01
33163;BME280;29282;45.656;11.302;2023-06-26T02:11:58;98421.22;;;25.06;57.95
33163;BME280;29282;45.656;11.302;2023-06-26T02:14:23;98423.22;;;25.05;57.89
33163;BME280;29282;45.656;11.302;2023-06-26T02:16:49;98422.84;;;25.07;57.98
33163;BME280;29282;45.656;11.302;2023-06-26T02:19:14;98430.34;;;25.06;57.80
33163;BME280;29282;45.656;11.302;2023-06-26T02:21:48;98437.06;;;25.05;57.83
33163;BME280;29282;45.656;11.302;2023-06-26T02:24:14;98436.28;;;25.05;58.11
33163;BME280;29282;45.656;11.302;2023-06-26T02:26:40;98435.09;;;25.06;57.91
33163;BME280;29282;45.656;11.302;2023-06-26T02:29:05;98433.50;;;25.05;58.21
33163;BME280;29282;45.656;11.302;2023-06-26T02:31:31;98437.06;;;25.05;58.12
33163;BME280;29282;45.656;11.302;2023-06-26T02:33:56;98441.81;;;25.05;58.02
33163;BME280;29282;45.656;11.302;2023-06-26T02:36:22;98437.88;;;25.06;58.00
33163;BME280;29282;45.656;11.302;2023-06-26T02:38:47;98443.41;;;25.06;58.22
33163;BME280;29282;45.656;11.302;2023-06-26T02:41:13;98437.88;;;25.06;58.14
33163;BME280;29282;45.656;11.302;2023-06-26T02:43:39;98431.91;;;25.04;58.21
33163;BME280;29282;45.656;11.302;2023-06-26T02:46:04;98439.06;;;25.05;58.24
33163;BME280;29282;45.656;11.302;2023-06-26T02:48:30;98436.28;;;25.05;58.05
33163;BME280;29282;45.656;11.302;2023-06-26T02:50:55;98441.81;;;25.05;58.13
33163;BME280;29282;45.656;11.302;2023-06-26T02:53:21;98436.28;;;25.05;58.28
33163;BME280;29282;45.656;11.302;2023-06-26T02:55:49;98441.81;;;25.05;58.25
33163;BME280;29282;45.656;11.302;2023-06-26T02:58:15;98443.00;;;25.04;58.15
33163;BME280;29282;45.656;11.302;2023-06-26T03:00:40;98441.81;;;25.05;58.24
33163;BME280;29282;45.656;11.302;2023-06-26T03:03:07;98437.47;;;25.04;58.13
33163;BME280;29282;45.656;11.302;2023-06-26T03:05:33;98445.38;;;25.05;58.17
33163;BME280;29282;45.656;11.302;2023-06-26T03:08:02;98440.22;;;25.04;58.30
33163;BME280;29282;45.656;11.302;2023-06-26T03:10:28;98445.38;;;25.05;58.21
33163;BME280;29282;45.656;11.302;2023-06-26T03:12:53;98445.78;;;25.04;58.23
33163;BME280;29282;45.656;11.302;2023-06-26T03:15:19;98436.66;;;25.03;58.29
33163;BME280;29282;45.656;11.302;2023-06-26T03:17:45;98443.00;;;25.04;58.34
33163;BME280;29282;45.656;11.302;2023-06-26T03:20:10;98448.53;;;25.04;58.20
33163;BME280;29282;45.656;11.302;2023-06-26T03:22:36;98453.28;;;25.03;58.22
33163;BME280;29282;45.656;11.302;2023-06-26T03:25:05;98450.53;;;25.03;58.26
33163;BME280;29282;45.656;11.302;2023-06-26T03:27:31;98455.69;;;25.05;58.19
33163;BME280;29282;45.656;11.302;2023-06-26T03:29:56;98451.31;;;25.04;58.33
33163;BME280;29282;45.656;11.302;2023-06-26T03:32:22;98457.66;;;25.04;58.18
33163;BME280;29282;45.656;11.302;2023-06-26T03:34:47;98456.88;;;25.04;58.08
33163;BME280;29282;45.656;11.302;2023-06-26T03:37:13;98456.88;;;25.04;58.24
33163;BME280;29282;45.656;11.302;2023-06-26T03:39:38;98458.03;;;25.03;58.20
33163;BME280;29282;45.656;11.302;2023-06-26T03:42:04;98459.63;;;25.04;58.23
33163;BME280;29282;45.656;11.302;2023-06-26T03:44:30;98458.03;;;25.03;58.26
33163;BME280;29282;45.656;11.302;2023-06-26T03:46:55;98456.06;;;25.03;58.12
33163;BME280;29282;45.656;11.302;2023-06-26T03:49:21;98456.06;;;25.03;58.26
33163;BME280;29282;45.656;11.302;2023-06-26T03:51:47;98464.38;;;25.03;58.32
33163;BME280;29282;45.656;11.302;2023-06-26T03:56:47;98467.16;;;25.03;58.24
33163;BME280;29282;45.656;11.302;2023-06-26T03:59:13;98463.56;;;25.03;58.05
33163;BME280;29282;45.656;11.302;2023-06-26T04:01:38;98461.63;;;25.03;58.25
33163;BME280;29282;45.656;11.302;2023-06-26T04:04:04;98467.16;;;25.03;58.19
33163;BME280;29282;45.656;11.302;2023-06-26T04:06:30;98470.72;;;25.04;58.22
33163;BME280;29282;45.656;11.302;2023-06-26T04:08:57;98473.91;;;25.06;58.05
33163;BME280;29282;45.656;11.302;2023-06-26T04:11:23;98475.88;;;25.05;58.18
33163;BME280;29282;45.656;11.302;2023-06-26T04:13:51;98475.88;;;25.05;58.08
33163;BME280;29282;45.656;11.302;2023-06-26T04:16:17;98470.34;;;25.05;58.14
33163;BME280;29282;45.656;11.302;2023-06-26T04:18:42;98467.56;;;25.05;58.23
33163;BME280;29282;45.656;11.302;2023-06-26T04:21:09;98469.53;;;25.05;58.04
33163;BME280;29282;45.656;11.302;2023-06-26T04:23:36;98467.56;;;25.05;58.15
33163;BME280;29282;45.656;11.302;2023-06-26T04:26:03;98473.91;;;25.06;58.30
33163;BME280;29282;45.656;11.302;2023-06-26T04:28:30;98468.34;;;25.06;58.18
33163;BME280;29282;45.656;11.302;2023-06-26T04:30:56;98470.34;;;25.05;58.19
33163;BME280;29282;45.656;11.302;2023-06-26T04:33:21;98476.69;;;25.06;58.11
33163;BME280;29282;45.656;11.302;2023-06-26T04:35:48;98478.28;;;25.07;58.03
33163;BME280;29282;45.656;11.302;2023-06-26T04:38:14;98473.09;;;25.05;58.12
33163;BME280;29282;45.656;11.302;2023-06-26T04:40:40;98476.69;;;25.06;57.99
33163;BME280;29282;45.656;11.302;2023-06-26T04:43:06;98479.44;;;25.06;58.24
33163;BME280;29282;45.656;11.302;2023-06-26T04:45:32;98477.47;;;25.06;57.99
33163;BME280;29282;45.656;11.302;2023-06-26T04:47:57;98473.94;;;25.09;57.98
33163;BME280;29282;45.656;11.302;2023-06-26T04:50:23;98474.47;;;25.15;57.79
33163;BME280;29282;45.656;11.302;2023-06-26T04:52:48;98474.91;;;25.17;58.04
33163;BME280;29282;45.656;11.302;2023-06-26T04:55:14;98482.03;;;25.18;57.84
33163;BME280;29282;45.656;11.302;2023-06-26T04:57:39;98475.31;;;25.19;57.76
33163;BME280;29282;45.656;11.302;2023-06-26T05:00:05;98473.31;;;25.20;57.75
33163;BME280;29282;45.656;11.302;2023-06-26T05:02:35;98472.16;;;25.21;57.81
33163;BME280;29282;45.656;11.302;2023-06-26T05:05:01;98463.84;;;25.21;57.37
33163;BME280;29282;45.656;11.302;2023-06-26T05:07:26;98471.00;;;25.22;57.94
33163;BME280;29282;45.656;11.302;2023-06-26T05:09:52;98473.75;;;25.22;57.61
33163;BME280;29282;45.656;11.302;2023-06-26T05:12:17;98472.56;;;25.23;57.53
33163;BME280;29282;45.656;11.302;2023-06-26T05:14:43;98474.19;;;25.24;57.63
33163;BME280;29282;45.656;11.302;2023-06-26T05:17:14;98473.41;;;25.23;57.48
33163;BME280;29282;45.656;11.302;2023-06-26T05:19:39;98472.22;;;25.24;57.53
33163;BME280;29282;45.656;11.302;2023-06-26T05:22:06;98466.66;;;25.24;57.64
33163;BME280;29282;45.656;11.302;2023-06-26T05:24:38;98465.09;;;25.23;57.61
33163;BME280;29282;45.656;11.302;2023-06-26T05:27:04;98459.53;;;25.23;57.73
33163;BME280;29282;45.656;11.302;2023-06-26T05:29:31;98460.34;;;25.24;57.51
33163;BME280;29282;45.656;11.302;2023-06-26T05:31:58;98465.88;;;25.24;57.74
33163;BME280;29282;45.656;11.302;2023-06-26T05:34:24;98469.84;;;25.26;57.49
33163;BME280;29282;45.656;11.302;2023-06-26T05:36:51;98475.00;;;25.24;57.37
33163;BME280;29282;45.656;11.302;2023-06-26T05:39:18;98469.84;;;25.26;57.28
33163;BME280;29282;45.656;11.302;2023-06-26T05:41:44;98463.50;;;25.26;57.60
33163;BME280;29282;45.656;11.302;2023-06-26T05:44:10;98463.50;;;25.26;57.73
33163;BME280;29282;45.656;11.302;2023-06-26T05:46:35;98466.28;;;25.26;57.51
33163;BME280;29282;45.656;11.302;2023-06-26T05:49:01;98467.06;;;25.26;57.48
33163;BME280;29282;45.656;11.302;2023-06-26T05:51:27;98472.25;;;25.28;57.62
33163;BME280;29282;45.656;11.302;2023-06-26T05:53:53;98469.50;;;25.28;57.63
33163;BME280;29282;45.656;11.302;2023-06-26T05:56:19;98467.50;;;25.28;57.39
33163;BME280;29282;45.656;11.302;2023-06-26T05:58:45;98461.16;;;25.28;57.44
33163;BME280;29282;45.656;11.302;2023-06-26T06:01:11;98459.97;;;25.29;57.68
33163;BME280;29282;45.656;11.302;2023-06-26T06:03:38;98462.75;;;25.29;57.52
33163;BME280;29282;45.656;11.302;2023-06-26T06:06:06;98466.72;;;25.28;57.56
33163;BME280;29282;45.656;11.302;2023-06-26T06:08:32;98464.31;;;25.26;57.56
33163;BME280;29282;45.656;11.302;2023-06-26T06:10:59;98462.72;;;25.25;57.67
33163;BME280;29282;45.656;11.302;2023-06-26T06:13:25;98471.03;;;25.25;57.60
33163;BME280;29282;45.656;11.302;2023-06-26T06:15:50;98467.06;;;25.26;57.67
33163;BME280;29282;45.656;11.302;2023-06-26T06:18:16;98463.50;;;25.26;57.66
33163;BME280;29282;45.656;11.302;2023-06-26T06:20:42;98464.31;;;25.26;57.41
33163;BME280;29282;45.656;11.302;2023-06-26T06:23:07;98459.19;;;25.28;57.07
33163;BME280;29282;45.656;11.302;2023-06-26T06:25:33;98456.09;;;25.34;57.05
33163;BME280;29282;45.656;11.302;2023-06-26T06:27:58;98459.66;;;25.34;57.17
33163;BME280;29282;45.656;11.302;2023-06-26T06:30:24;98460.84;;;25.33;56.82
33163;BME280;29282;45.656;11.302;2023-06-26T06:32:49;98455.66;;;25.31;55.98
33163;BME280;29282;45.656;11.302;2023-06-26T06:35:18;98459.66;;;25.34;56.43
33163;BME280;29282;45.656;11.302;2023-06-26T06:37:44;98457.69;;;25.35;55.64
33163;BME280;29282;45.656;11.302;2023-06-26T06:40:10;98458.47;;;25.35;55.46
33163;BME280;29282;45.656;11.302;2023-06-26T06:42:36;98451.75;;;25.36;55.23
33163;BME280;29282;45.656;11.302;2023-06-26T06:45:05;98456.50;;;25.36;55.63
33163;BME280;29282;45.656;11.302;2023-06-26T06:47:32;98452.53;;;25.33;53.48
33163;BME280;29282;45.656;11.302;2023-06-26T06:49:58;98451.34;;;25.34;54.54
33163;BME280;29282;45.656;11.302;2023-06-26T06:52:24;98453.72;;;25.36;54.33
33163;BME280;29282;45.656;11.302;2023-06-26T06:54:53;98454.88;;;25.31;54.29
33163;BME280;29282;45.656;11.302;2023-06-26T06:57:22;98460.78;;;25.29;54.26
33163;BME280;29282;45.656;11.302;2023-06-26T06:59:48;98457.25;;;25.33;53.91
33163;BME280;29282;45.656;11.302;2023-06-26T07:02:15;98458.34;;;25.24;51.84
33163;BME280;29282;45.656;11.302;2023-06-26T07:04:41;98453.22;;;25.26;52.21
33163;BME280;29282;45.656;11.302;2023-06-26T07:07:10;98455.91;;;25.19;50.99
33163;BME280;29282;45.656;11.302;2023-06-26T07:09:38;98457.03;;;25.15;50.68
33163;BME280;29282;45.656;11.302;2023-06-26T07:12:04;98453.47;;;25.14;52.13
33163;BME280;29282;45.656;11.302;2023-06-26T07:14:30;98453.06;;;25.16;51.22
33163;BME280;29282;45.656;11.302;2023-06-26T07:16:55;98448.72;;;25.15;50.67
33163;BME280;29282;45.656;11.302;2023-06-26T07:19:21;98452.31;;;25.19;50.57
33163;BME280;29282;45.656;11.302;2023-06-26T07:21:46;98438.16;;;25.24;50.88
33163;BME280;29282;45.656;11.302;2023-06-26T07:24:15;98447.66;;;25.26;51.16
33163;BME280;29282;45.656;11.302;2023-06-26T07:26:40;98447.66;;;25.26;52.25
33163;BME280;29282;45.656;11.302;2023-06-26T07:29:06;98440.97;;;25.27;51.29
33163;BME280;29282;45.656;11.302;2023-06-26T07:31:32;98441.38;;;25.29;51.54
33163;BME280;29282;45.656;11.302;2023-06-26T07:33:57;98441.38;;;25.29;52.92
33163;BME280;29282;45.656;11.302;2023-06-26T07:36:23;98436.25;;;25.31;51.65
33163;BME280;29282;45.656;11.302;2023-06-26T07:38:48;98437.44;;;25.30;51.50
33163;BME280;29282;45.656;11.302;2023-06-26T07:41:14;98434.66;;;25.30;51.79
33163;BME280;29282;45.656;11.302;2023-06-26T07:43:39;98440.56;;;25.29;51.51
33163;BME280;29282;45.656;11.302;2023-06-26T07:46:05;98440.16;;;25.27;50.94
33163;BME280;29282;45.656;11.302;2023-06-26T07:48:30;98443.31;;;25.25;51.49
33163;BME280;29282;45.656;11.302;2023-06-26T07:50:56;98442.13;;;25.26;52.08
33163;BME280;29282;45.656;11.302;2023-06-26T07:53:21;98436.56;;;25.26;51.17
33163;BME280;29282;45.656;11.302;2023-06-26T07:55:47;98437.00;;;25.28;51.42
33163;BME280;29282;45.656;11.302;2023-06-26T07:58:12;98441.75;;;25.28;50.90
33163;BME280;29282;45.656;11.302;2023-06-26T08:00:38;98439.78;;;25.28;51.03
33163;BME280;29282;45.656;11.302;2023-06-26T08:03:03;98445.38;;;25.32;50.43
33163;BME280;29282;45.656;11.302;2023-06-26T08:05:29;98440.22;;;25.30;50.96
33163;BME280;29282;45.656;11.302;2023-06-26T08:07:55;98436.69;;;25.34;49.71
33163;BME280;29282;45.656;11.302;2023-06-26T08:10:20;98435.47;;;25.31;50.63
33163;BME280;29282;45.656;11.302;2023-06-26T08:12:46;98435.81;;;25.29;50.51
33163;BME280;29282;45.656;11.302;2023-06-26T08:15:12;98441.38;;;25.29;50.57
33163;BME280;29282;45.656;11.302;2023-06-26T08:17:40;98432.34;;;25.36;50.66
33163;BME280;29282;45.656;11.302;2023-06-26T08:20:06;98428.78;;;25.36;50.61
33163;BME280;29282;45.656;11.302;2023-06-26T08:22:33;98425.16;;;25.31;51.46
33163;BME280;29282;45.656;11.302;2023-06-26T08:24:59;98426.34;;;25.30;50.19
33163;BME280;29282;45.656;11.302;2023-06-26T08:27:25;98422.38;;;25.31;49.74
33163;BME280;29282;45.656;11.302;2023-06-26T08:29:50;98423.97;;;25.33;49.57
33163;BME280;29282;45.656;11.302;2023-06-26T08:32:16;98419.56;;;25.28;49.17
33163;BME280;29282;45.656;11.302;2023-06-26T08:34:42;98431.88;;;25.30;49.74
33163;BME280;29282;45.656;11.302;2023-06-26T08:37:07;98427.13;;;25.31;49.86
33163;BME280;29282;45.656;11.302;2023-06-26T08:39:34;98421.25;;;25.36;49.78
33163;BME280;29282;45.656;11.302;2023-06-26T08:42:02;98423.97;;;25.33;50.52
33163;BME280;29282;45.656;11.302;2023-06-26T08:44:28;98422.38;;;25.31;50.48
33163;BME280;29282;45.656;11.302;2023-06-26T08:46:54;98419.63;;;25.31;50.78
33163;BME280;29282;45.656;11.302;2023-06-26T08:52:17;98422.78;;;25.30;51.07
33163;BME280;29282;45.656;11.302;2023-06-26T08:54:46;98421.94;;;25.29;51.36
33163;BME280;29282;45.656;11.302;2023-06-26T08:57:18;98416.78;;;25.28;51.28
33163;BME280;29282;45.656;11.302;2023-06-26T08:59:45;98420.38;;;25.28;51.40
33163;BME280;29282;45.656;11.302;2023-06-26T09:02:12;98412.03;;;25.28;51.75
33163;BME280;29282;45.656;11.302;2023-06-26T09:04:38;98412.03;;;25.28;51.61
33163;BME280;29282;45.656;11.302;2023-06-26T09:07:04;98412.84;;;25.29;51.32
33163;BME280;29282;45.656;11.302;2023-06-26T09:09:30;98407.69;;;25.27;51.38
33163;BME280;29282;45.656;11.302;2023-06-26T09:11:55;98402.94;;;25.28;51.97
33163;BME280;29282;45.656;11.302;2023-06-26T09:14:21;98404.16;;;25.30;51.79
33163;BME280;29282;45.656;11.302;2023-06-26T09:16:46;98406.53;;;25.32;51.88
33163;BME280;29282;45.656;11.302;2023-06-26T09:19:12;98395.44;;;25.32;52.12
33163;BME280;29282;45.656;11.302;2023-06-26T09:21:39;98405.38;;;25.33;52.00
33163;BME280;29282;45.656;11.302;2023-06-26T09:24:07;98409.75;;;25.34;51.81
33163;BME280;29282;45.656;11.302;2023-06-26T09:26:35;98409.75;;;25.34;52.12
33163;BME280;29282;45.656;11.302;2023-06-26T09:29:02;98398.66;;;25.34;52.08
33163;BME280;29282;45.656;11.302;2023-06-26T09:31:28;98402.22;;;25.35;52.56
33163;BME280;29282;45.656;11.302;2023-06-26T09:34:00;98400.25;;;25.35;52.34
33163;BME280;29282;45.656;11.302;2023-06-26T09:36:29;98392.72;;;25.36;52.40
33163;BME280;29282;45.656;11.302;2023-06-26T09:38:59;98396.28;;;25.36;52.63
33163;BME280;29282;45.656;11.302;2023-06-26T09:41:25;98399.06;;;25.36;52.66
33163;BME280;29282;45.656;11.302;2023-06-26T09:43:51;98393.16;;;25.38;52.44
33163;BME280;29282;45.656;11.302;2023-06-26T09:46:17;98384.44;;;25.39;52.44
33163;BME280;29282;45.656;11.302;2023-06-26T09:48:49;98389.97;;;25.39;52.33
33163;BME280;29282;45.656;11.302;2023-06-26T09:51:16;98382.84;;;25.38;52.80
33163;BME280;29282;45.656;11.302;2023-06-26T09:53:42;98386.06;;;25.40;52.65
33163;BME280;29282;45.656;11.302;2023-06-26T09:56:15;98381.28;;;25.41;52.84
33163;BME280;29282;45.656;11.302;2023-06-26T09:58:42;98381.28;;;25.41;52.62
33163;BME280;29282;45.656;11.302;2023-06-26T10:01:08;98379.31;;;25.41;52.65
33163;BME280;29282;45.656;11.302;2023-06-26T10:03:35;98382.88;;;25.42;52.81
33163;BME280;29282;45.656;11.302;2023-06-26T10:06:02;98378.13;;;25.42;53.01
33163;BME280;29282;45.656;11.302;2023-06-26T10:08:28;98375.34;;;25.42;52.88
33163;BME280;29282;45.656;11.302;2023-06-26T10:10:56;98369.81;;;25.42;53.16
33163;BME280;29282;45.656;11.302;2023-06-26T10:13:29;98373.38;;;25.43;53.17
33163;BME280;29282;45.656;11.302;2023-06-26T10:15:57;98366.25;;;25.42;53.49
33163;BME280;29282;45.656;11.302;2023-06-26T10:18:25;98367.03;;;25.42;53.20
33163;BME280;29282;45.656;11.302;2023-06-26T10:20:55;98358.31;;;25.40;53.34
33163;BME280;29282;45.656;11.302;2023-06-26T10:23:24;98361.88;;;25.41;53.35
33163;BME280;29282;45.656;11.302;2023-06-26T10:25:51;98354.75;;;25.40;53.49
33163;BME280;29282;45.656;11.302;2023-06-26T10:28:21;98344.84;;;25.42;53.04
33163;BME280;29282;45.656;11.302;2023-06-26T10:30:50;98360.69;;;25.42;53.32
33163;BME280;29282;45.656;11.302;2023-06-26T10:33:17;98363.91;;;25.44;53.15
33163;BME280;29282;45.656;11.302;2023-06-26T10:35:44;98352.41;;;25.45;53.26
33163;BME280;29282;45.656;11.302;2023-06-26T10:38:12;98361.13;;;25.44;53.47
33163;BME280;29282;45.656;11.302;2023-06-26T10:43:08;98361.47;;;25.42;53.45
33163;BME280;29282;45.656;11.302;2023-06-26T10:45:34;98363.47;;;25.42;53.67
33163;BME280;29282;45.656;11.302;2023-06-26T10:48:00;98348.81;;;25.41;53.60
33163;BME280;29282;45.656;11.302;2023-06-26T10:50:31;98355.16;;;25.42;53.88
33163;BME280;29282;45.656;11.302;2023-06-26T10:53:15;98346.81;;;25.42;53.73
33163;BME280;29282;45.656;11.302;2023-06-26T10:56:04;98342.06;;;25.42;53.54
33163;BME280;29282;45.656;11.302;2023-06-26T11:04:09;98341.28;;;25.42;53.78
33163;BME280;29282;45.656;11.302;2023-06-26T11:06:37;98334.94;;;25.41;53.79
33163;BME280;29282;45.656;11.302;2023-06-26T11:09:11;98327.00;;;25.40;53.63
33163;BME280;29282;45.656;11.302;2023-06-26T11:14:22;98325.81;;;25.41;53.83
33163;BME280;29282;45.656;11.302;2023-06-26T11:16:48;98318.28;;;25.41;53.97
33163;BME280;29282;45.656;11.302;2023-06-26T11:19:16;98321.06;;;25.41;53.84
33163;BME280;29282;45.656;11.302;2023-06-26T11:21:41;98317.09;;;25.42;53.86
33163;BME280;29282;45.656;11.302;2023-06-26T11:24:08;98319.09;;;25.42;53.77
33163;BME280;29282;45.656;11.302;2023-06-26T11:26:40;98310.75;;;25.42;53.82
33163;BME280;29282;45.656;11.302;2023-06-26T11:29:10;98317.09;;;25.42;53.94
33163;BME280;29282;45.656;11.302;2023-06-26T11:31:38;98308.78;;;25.42;53.95
33163;BME280;29282;45.656;11.302;2023-06-26T11:34:08;98318.72;;;25.43;53.79
33163;BME280;29282;45.656;11.302;2023-06-26T11:36:36;98308.78;;;25.42;53.97
33163;BME280;29282;45.656;11.302;2023-06-26T11:39:06;98317.91;;;25.43;53.91
33163;BME280;29282;45.656;11.302;2023-06-26T11:41:39;98309.97;;;25.41;53.88
33163;BME280;29282;45.656;11.302;2023-06-26T11:44:12;98305.22;;;25.42;53.98
33163;BME280;29282;45.656;11.302;2023-06-26T11:46:39;98307.63;;;25.43;54.05
33163;BME280;29282;45.656;11.302;2023-06-26T11:49:06;98305.22;;;25.42;53.98
33163;BME280;29282;45.656;11.302;2023-06-26T11:51:33;98306.00;;;25.42;53.95
33163;BME280;29282;45.656;11.302;2023-06-26T11:54:02;98302.06;;;25.43;54.04
33163;BME280;29282;45.656;11.302;2023-06-26T11:56:31;98307.63;;;25.43;53.87
33163;BME280;29282;45.656;11.302;2023-06-26T11:59:10;98304.03;;;25.43;54.13
33163;BME280;29282;45.656;11.302;2023-06-26T12:01:42;98296.53;;;25.43;53.90
33163;BME280;29282;45.656;11.302;2023-06-26T12:04:14;98297.31;;;25.44;54.04
33163;BME280;29282;45.656;11.302;2023-06-26T12:06:45;98295.72;;;25.43;54.06
33163;BME280;29282;45.656;11.302;2023-06-26T12:09:13;98294.56;;;25.44;54.09
33163;BME280;29282;45.656;11.302;2023-06-26T12:11:44;98287.38;;;25.43;53.99
33163;BME280;29282;45.656;11.302;2023-06-26T12:14:14;98297.31;;;25.44;53.90
33163;BME280;29282;45.656;11.302;2023-06-26T12:16:44;98295.34;;;25.44;53.90
33163;BME280;29282;45.656;11.302;2023-06-26T12:19:12;98290.59;;;25.45;53.96
33163;BME280;29282;45.656;11.302;2023-06-26T12:24:08;98276.72;;;25.45;54.36
33163;BME280;29282;45.656;11.302;2023-06-26T12:26:36;98282.28;;;25.45;54.25
33163;BME280;29282;45.656;11.302;2023-06-26T12:29:07;98289.81;;;25.44;54.23
33163;BME280;29282;45.656;11.302;2023-06-26T12:31:35;98280.69;;;25.44;54.10
33163;BME280;29282;45.656;11.302;2023-06-26T12:34:09;98273.16;;;25.44;54.34
33163;BME280;29282;45.656;11.302;2023-06-26T12:36:41;98271.97;;;25.45;54.01
33163;BME280;29282;45.656;11.302;2023-06-26T12:39:11;98275.53;;;25.46;54.06
33163;BME280;29282;45.656;11.302;2023-06-26T12:41:47;98269.97;;;25.46;54.06
33163;BME280;29282;45.656;11.302;2023-06-26T12:44:27;98276.34;;;25.46;54.02
33163;BME280;29282;45.656;11.302;2023-06-26T12:46:57;98276.34;;;25.46;54.25
33163;BME280;29282;45.656;11.302;2023-06-26T12:49:34;98273.59;;;25.46;54.17
33163;BME280;29282;45.656;11.302;2023-06-26T12:52:02;98274.38;;;25.47;54.12
33163;BME280;29282;45.656;11.302;2023-06-26T12:54:28;98268.03;;;25.46;54.20
33163;BME280;29282;45.656;11.302;2023-06-26T12:56:54;98266.84;;;25.47;54.22
33163;BME280;29282;45.656;11.302;2023-06-26T12:59:20;98263.28;;;25.47;53.98
33163;BME280;29282;45.656;11.302;2023-06-26T13:01:46;98259.72;;;25.46;54.12
33163;BME280;29282;45.656;11.302;2023-06-26T13:04:12;98261.31;;;25.47;54.08
33163;BME280;29282;45.656;11.302;2023-06-26T13:06:38;98262.09;;;25.48;54.31
33163;BME280;29282;45.656;11.302;2023-06-26T13:09:03;98258.53;;;25.47;54.16
33163;BME280;29282;45.656;11.302;2023-06-26T13:11:32;98258.53;;;25.47;54.19
33163;BME280;29282;45.656;11.302;2023-06-26T13:13:59;98254.56;;;25.48;54.21
33163;BME280;29282;45.656;11.302;2023-06-26T13:16:25;98262.88;;;25.48;54.35
33163;BME280;29282;45.656;11.302;2023-06-26T13:18:50;98251.00;;;25.48;54.35
33163;BME280;29282;45.656;11.302;2023-06-26T13:21:16;98266.44;;;25.49;54.36